Time;durP1;ratioP1;P1;durP2;ratioP2;P2;SDS_P1;SDS_P2;PMS_P1;PMS_P2;Temp;Humidity;BMP_temperature;BMP_pressure;BME280_temperature;BME280_humidity;BME280_pressure;Samples;Min_cycle;Max_cycle;Signal;HPM_P1;HPM_P2
2023/03/13 00:02:16;;;;;;;12.80;3.97;;;;;;;7.42;97.39;99580.25;4963875;28;20235;-80
2023/03/13 00:04:43;;;;;;;15.57;3.93;;;;;;;7.39;96.95;99600.22;4963680;28;20583;-79
2023/03/13 00:07:10;;;;;;;13.97;4.27;;;;;;;7.44;96.97;99599.25;4963186;28;20244;-79
2023/03/13 00:09:36;;;;;;;8.63;3.13;;;;;;;7.45;96.74;99590.59;4963171;28;20247;-80
2023/03/13 00:12:02;;;;;;;14.63;4.53;;;;;;;7.50;95.46;99617.31;4962321;28;20266;-81
2023/03/13 00:14:29;;;;;;;13.57;3.73;;;;;;;7.47;95.92;99614.78;4963320;28;20236;-80
2023/03/13 00:16:55;;;;;;;15.10;3.90;;;;;;;7.47;96.04;99600.94;4963181;28;20279;-79
2023/03/13 00:19:21;;;;;;;12.13;4.90;;;;;;;7.52;95.60;99609.50;4963464;28;20646;-81
2023/03/13 00:21:49;;;;;;;9.17;3.77;;;;;;;7.51;95.85;99598.25;4963330;28;20213;-81
2023/03/13 00:24:15;;;;;;;12.43;3.37;;;;;;;7.47;96.13;99586.22;4962966;28;20606;-80
2023/03/13 00:26:41;;;;;;;9.83;3.83;;;;;;;7.44;96.03;99575.88;4963231;28;20232;-80
2023/03/13 00:29:08;;;;;;;9.23;3.50;;;;;;;7.49;96.05;99578.38;4963056;28;20672;-80
2023/03/13 00:31:34;;;;;;;8.60;3.17;;;;;;;7.59;94.70;99590.31;4962375;28;20205;-81
2023/03/13 00:34:02;;;;;;;13.77;4.50;;;;;;;7.61;94.70;99609.31;4962612;28;20312;-79
2023/03/13 00:36:30;;;;;;;12.97;4.30;;;;;;;7.65;94.42;99604.91;4962446;28;20197;-80
2023/03/13 00:38:59;;;;;;;12.77;3.87;;;;;;;7.66;93.58;99617.84;4961758;28;20209;-81
2023/03/13 00:41:27;;;;;;;9.07;4.13;;;;;;;7.63;93.57;99622.25;4962058;28;20261;-80
2023/03/13 00:43:54;;;;;;;9.47;3.53;;;;;;;7.69;93.81;99619.53;4961680;29;20223;-81
2023/03/13 00:46:22;;;;;;;18.47;4.70;;;;;;;7.65;93.85;99607.50;4961367;28;20235;-79
2023/03/13 00:48:48;;;;;;;14.57;3.70;;;;;;;7.71;93.37;99616.03;4962411;28;20212;-80
2023/03/13 00:51:16;;;;;;;13.17;3.37;;;;;;;7.68;94.09;99604.84;4961582;28;20216;-80
2023/03/13 00:53:44;;;;;;;13.70;4.27;;;;;;;7.68;93.94;99595.31;4961287;28;20623;-80
2023/03/13 00:56:13;;;;;;;12.53;3.97;;;;;;;7.71;93.15;99596.97;4962238;28;20208;-81
2023/03/13 00:58:41;;;;;;;10.70;4.13;;;;;;;7.74;93.12;99609.91;4961796;28;20213;-80
2023/03/13 01:01:08;;;;;;;14.63;3.40;;;;;;;7.74;93.72;99584.78;4961752;29;20201;-81
2023/03/13 01:03:36;;;;;;;15.13;3.87;;;;;;;7.69;94.45;99575.38;4961450;29;20225;-80
2023/03/13 01:06:05;;;;;;;11.53;2.70;;;;;;;7.65;94.03;99579.81;4961432;28;20208;-79
2023/03/13 01:08:31;;;;;;;10.00;2.80;;;;;;;7.70;94.32;99569.31;4961900;28;20307;-81
2023/03/13 01:10:58;;;;;;;9.83;3.70;;;;;;;7.68;94.74;99552.91;4961423;28;20212;-82
2023/03/13 01:13:27;;;;;;;14.73;4.30;;;;;;;7.67;93.66;99556.38;4968777;28;20287;-80
2023/03/13 01:15:53;;;;;;;20.50;4.90;;;;;;;7.71;93.88;99548.50;4980898;28;20211;-79
2023/03/13 01:18:19;;;;;;;12.00;3.27;;;;;;;7.73;93.70;99557.13;4980843;28;20579;-81
2023/03/13 01:20:45;;;;;;;11.37;3.50;;;;;;;7.78;92.27;99566.53;4980395;28;20216;-81
2023/03/13 01:23:12;;;;;;;7.03;3.00;;;;;;;7.82;91.96;99558.66;4980003;28;20231;-79
2023/03/13 01:25:39;;;;;;;10.97;3.73;;;;;;;7.91;92.49;99566.25;4980227;28;20737;-80
2023/03/13 01:28:05;;;;;;;14.63;3.20;;;;;;;7.88;91.90;99563.69;4980076;28;20236;-81
2023/03/13 01:30:33;;;;;;;11.90;3.77;;;;;;;7.90;91.30;99576.66;4980847;28;20212;-80
2023/03/13 01:33:01;;;;;;;11.90;3.70;;;;;;;7.99;90.49;99596.38;4980828;28;20228;-80
2023/03/13 01:35:27;;;;;;;13.13;3.57;;;;;;;8.06;90.83;99591.03;4980726;28;20208;-80
2023/03/13 01:37:53;;;;;;;13.23;3.67;;;;;;;8.08;91.03;99580.59;4980162;28;20207;-80
2023/03/13 01:40:19;;;;;;;14.47;3.57;;;;;;;8.07;90.19;99591.91;4980456;28;20216;-80
2023/03/13 01:42:53;;;;;;;9.73;3.13;;;;;;;8.04;90.96;99577.22;4967633;28;20716;-81
2023/03/13 01:45:53;;;;;;;12.47;3.13;;;;;;;8.09;90.68;99577.97;4961395;28;20212;-80
2023/03/13 01:48:21;;;;;;;10.80;2.27;;;;;;;8.09;91.35;99559.78;4961705;28;20788;-81
2023/03/13 01:50:48;;;;;;;8.77;3.07;;;;;;;8.06;92.14;99541.63;4961441;28;20212;-81
2023/03/13 01:53:14;;;;;;;12.33;3.40;;;;;;;8.08;92.03;99526.00;4961749;28;20243;-80
2023/03/13 01:55:41;;;;;;;12.80;6.03;;;;;;;8.13;92.23;99512.03;4960978;28;20746;-80
2023/03/13 01:58:08;;;;;;;12.57;3.80;;;;;;;8.10;92.24;99504.28;4961381;28;20208;-81
2023/03/13 02:00:36;;;;;;;8.27;3.27;;;;;;;8.10;93.01;99480.06;4961481;28;20212;-80
2023/03/13 02:03:08;;;;;;;9.00;3.57;;;;;;;8.07;93.53;99449.81;4961131;28;20264;-80
2023/03/13 02:05:35;;;;;;;16.33;3.80;;;;;;;8.09;94.30;99431.56;4961836;28;20197;-79
2023/03/13 02:08:07;;;;;;;11.00;3.17;;;;;;;8.10;95.24;99402.06;4961317;28;20267;-81
2023/03/13 02:10:41;;;;;;;10.87;3.80;;;;;;;8.06;95.88;99369.25;4962217;28;20212;-81
2023/03/13 02:13:09;;;;;;;11.20;3.57;;;;;;;7.98;96.72;99340.88;4962056;28;20228;-81
2023/03/13 02:15:36;;;;;;;10.67;4.03;;;;;;;7.90;96.92;99319.44;4962799;28;20221;-80
2023/03/13 02:18:04;;;;;;;17.30;3.97;;;;;;;7.95;98.19;99297.63;4962158;28;20208;-80
2023/03/13 02:20:30;;;;;;;10.50;3.23;;;;;;;7.92;98.59;99276.91;4961928;28;20212;-81
2023/03/13 02:23:04;;;;;;;8.80;3.00;;;;;;;7.91;98.90;99251.84;4961795;28;20239;-80
2023/03/13 02:25:39;;;;;;;11.30;3.77;;;;;;;7.86;99.88;99232.06;4961988;28;20205;-80
2023/03/13 02:28:09;;;;;;;11.67;3.50;;;;;;;7.85;99.40;99219.97;4962256;28;20224;-81
2023/03/13 02:30:35;;;;;;;7.87;3.27;;;;;;;7.82;100.00;99202.72;4961830;28;20213;-80
2023/03/13 02:33:02;;;;;;;14.20;3.83;;;;;;;7.82;100.00;99192.34;4961742;28;20236;-80
2023/03/13 02:35:30;;;;;;;8.40;2.73;;;;;;;7.87;98.87;99207.78;4963653;28;20223;-79
2023/03/13 02:38:00;;;;;;;10.70;3.13;;;;;;;7.92;98.93;99204.16;4965740;28;20212;-79
2023/03/13 02:40:30;;;;;;;10.57;3.27;;;;;;;7.87;99.06;99210.38;4965220;28;20209;-81
2023/03/13 02:43:00;;;;;;;11.03;3.53;;;;;;;7.90;99.34;99194.72;4965266;28;20699;-80
2023/03/13 02:45:27;;;;;;;12.87;3.50;;;;;;;7.89;98.73;99187.84;4965462;28;20216;-81
2023/03/13 02:47:53;;;;;;;10.87;4.07;;;;;;;7.91;98.63;99188.66;4964993;28;20308;-80
2023/03/13 02:50:20;;;;;;;10.70;3.03;;;;;;;7.94;98.11;99191.13;4964875;28;20240;-81
2023/03/13 02:52:49;;;;;;;11.00;3.20;;;;;;;7.95;97.33;99193.72;4964635;28;20235;-79
2023/03/13 02:55:21;;;;;;;11.60;3.50;;;;;;;8.05;96.16;99219.44;4964821;28;20236;-80
2023/03/13 02:57:47;;;;;;;7.87;2.53;;;;;;;8.08;95.26;99214.13;4965147;28;20212;-80
2023/03/13 03:00:16;;;;;;;15.63;3.00;;;;;;;8.16;94.88;99228.59;4964418;28;20256;-80
2023/03/13 03:02:43;;;;;;;10.23;2.90;;;;;;;8.20;94.70;99237.19;4964799;28;20741;-79
2023/03/13 03:05:10;;;;;;;7.27;2.63;;;;;;;8.26;95.02;99223.16;4964999;28;20205;-79
2023/03/13 03:07:36;;;;;;;9.17;2.73;;;;;;;8.22;94.83;99226.75;4965010;28;20224;-80
2023/03/13 03:10:03;;;;;;;10.83;3.10;;;;;;;8.26;95.25;99208.41;4964139;29;20216;-81
2023/03/13 03:12:30;;;;;;;11.77;3.17;;;;;;;8.27;96.11;99194.53;4964814;28;20237;-79
2023/03/13 03:14:56;;;;;;;8.97;2.83;;;;;;;8.26;96.16;99181.56;4964613;28;20220;-79
2023/03/13 03:17:23;;;;;;;10.00;3.07;;;;;;;8.25;96.81;99157.31;4964373;28;20722;-79
2023/03/13 03:19:50;;;;;;;11.37;2.77;;;;;;;8.20;98.50;99120.19;4964743;28;20216;-80
2023/03/13 03:22:16;;;;;;;10.57;3.33;;;;;;;8.16;98.78;99116.00;4964571;28;20236;-81
2023/03/13 03:24:42;;;;;;;10.17;3.40;;;;;;;8.20;98.65;99098.56;4964331;28;20209;-79
2023/03/13 03:27:09;;;;;;;13.67;3.77;;;;;;;8.20;98.89;99073.41;4964792;29;20225;-81
2023/03/13 03:29:35;;;;;;;11.23;3.37;;;;;;;8.15;99.81;99041.53;4964317;28;20260;-80
2023/03/13 03:32:01;;;;;;;9.13;2.50;;;;;;;8.19;99.44;99029.31;4963387;28;20671;-80
2023/03/13 03:34:29;;;;;;;11.80;3.43;;;;;;;8.14;99.41;99035.47;4964608;28;20260;-81
2023/03/13 03:36:55;;;;;;;14.07;3.47;;;;;;;8.13;99.95;99022.53;4964578;28;20287;-81
2023/03/13 03:39:21;;;;;;;17.17;4.03;;;;;;;8.00;99.96;99009.06;4964286;28;20220;-79
2023/03/13 03:41:48;;;;;;;9.83;2.90;;;;;;;8.01;100.00;99004.72;4964331;28;20220;-82
2023/03/13 03:44:14;;;;;;;11.13;4.00;;;;;;;8.07;100.00;98988.97;4964527;28;20221;-81
2023/03/13 03:46:40;;;;;;;10.73;3.23;;;;;;;8.09;100.00;98968.97;4964402;28;20274;-81
2023/03/13 03:49:07;;;;;;;14.13;3.20;;;;;;;7.98;100.00;98960.66;4963925;28;20229;-79
2023/03/13 03:51:34;;;;;;;9.87;3.20;;;;;;;7.92;100.00;98948.72;4964795;28;20216;-81
2023/03/13 03:54:01;;;;;;;10.10;3.33;;;;;;;7.92;100.00;98940.91;4965049;28;20229;-81
2023/03/13 03:56:27;;;;;;;9.43;3.13;;;;;;;8.03;100.00;98925.00;4965008;28;20267;-81
2023/03/13 03:58:53;;;;;;;20.00;3.57;;;;;;;8.09;100.00;98935.19;4964729;28;20260;-80
2023/03/13 04:01:19;;;;;;;15.67;4.37;;;;;;;8.06;100.00;98938.72;4964601;28;20213;-81
2023/03/13 04:03:47;;;;;;;8.50;2.73;;;;;;;8.10;100.00;98957.66;4963847;28;20225;-81
2023/03/13 04:06:13;;;;;;;12.17;3.40;;;;;;;8.08;100.00;98962.06;4964630;28;20212;-80
2023/03/13 04:08:41;;;;;;;11.80;3.43;;;;;;;8.16;99.81;98954.84;4964471;28;20251;-79
2023/03/13 04:11:07;;;;;;;9.73;2.70;;;;;;;8.20;99.44;98968.59;4963985;28;20679;-79
2023/03/13 04:13:33;;;;;;;10.60;3.10;;;;;;;8.15;98.62;98972.19;4964759;28;20233;-80
2023/03/13 04:15:59;;;;;;;10.77;3.30;;;;;;;8.16;99.07;98973.88;4983180;28;20749;-81
2023/03/13 04:18:26;;;;;;;11.20;3.17;;;;;;;8.19;99.42;98972.13;4982776;28;20205;-80
2023/03/13 04:21:00;;;;;;;13.93;3.40;;;;;;;8.21;99.82;98971.16;4983175;28;20235;-81
2023/03/13 04:23:26;;;;;;;10.80;2.80;;;;;;;8.24;100.00;98958.03;4982856;28;20246;-78
2023/03/13 04:25:54;;;;;;;11.23;3.60;;;;;;;8.22;100.00;98944.25;4982673;28;20216;-80
2023/03/13 04:28:20;;;;;;;11.23;3.40;;;;;;;8.22;100.00;98918.25;4982429;28;20234;-81
2023/03/13 04:30:46;;;;;;;11.23;3.30;;;;;;;8.24;100.00;98894.81;4982962;28;20212;-79
2023/03/13 04:33:13;;;;;;;10.97;3.27;;;;;;;8.11;100.00;98851.06;4983126;28;20232;-79
2023/03/13 04:35:39;;;;;;;14.57;3.53;;;;;;;8.08;100.00;98817.38;4983233;28;20219;-79
2023/03/13 04:38:05;;;;;;;13.80;3.23;;;;;;;8.08;100.00;98775.78;4983435;28;20208;-79
2023/03/13 04:40:32;;;;;;;14.77;3.30;;;;;;;8.06;100.00;98767.19;4982880;28;20204;-80
2023/03/13 04:42:59;;;;;;;11.57;2.77;;;;;;;8.00;100.00;98730.22;4966950;28;20235;-79
2023/03/13 04:45:26;;;;;;;12.30;3.17;;;;;;;8.09;100.00;98704.75;4962245;28;20208;-79
2023/03/13 04:47:53;;;;;;;14.30;4.43;;;;;;;8.01;100.00;98714.56;4962703;28;20228;-80
2023/03/13 04:50:19;;;;;;;13.17;3.10;;;;;;;8.00;100.00;98680.84;4963082;28;20216;-81
2023/03/13 04:52:45;;;;;;;12.37;3.57;;;;;;;8.02;100.00;98673.84;4961967;28;20228;-80
2023/03/13 04:55:12;;;;;;;11.40;3.20;;;;;;;8.03;100.00;98662.56;4961947;28;20512;-80
2023/03/13 04:57:38;;;;;;;11.40;3.47;;;;;;;7.99;100.00;98660.94;4962244;28;20200;-80
2023/03/13 05:00:09;;;;;;;11.00;2.63;;;;;;;8.01;100.00;98670.41;4963037;28;20710;-80
2023/03/13 05:02:35;;;;;;;9.23;2.50;;;;;;;8.05;100.00;98661.59;4962883;28;20268;-79
2023/03/13 05:05:02;;;;;;;11.00;3.00;;;;;;;8.09;100.00;98644.97;4962670;29;20205;-81
2023/03/13 05:07:28;;;;;;;5.43;2.60;;;;;;;8.09;100.00;98631.16;4962412;28;20246;-80
2023/03/13 05:09:54;;;;;;;8.00;2.30;;;;;;;8.07;100.00;98630.34;4963249;28;20221;-80
2023/03/13 05:12:20;;;;;;;8.97;2.07;;;;;;;8.11;100.00;98601.59;4963621;28;20231;-78
2023/03/13 05:14:49;;;;;;;6.97;2.47;;;;;;;8.13;100.00;98589.38;4963272;28;20283;-81
2023/03/13 05:17:16;;;;;;;8.17;2.77;;;;;;;8.11;100.00;98608.53;4978874;28;20243;-79
2023/03/13 05:19:43;;;;;;;5.30;2.50;;;;;;;8.11;100.00;98596.38;4982887;28;20599;-81
2023/03/13 05:22:09;;;;;;;10.93;2.60;;;;;;;8.13;100.00;98601.53;4982514;28;20219;-79
2023/03/13 05:24:35;;;;;;;5.00;2.30;;;;;;;8.11;100.00;98599.00;4983360;28;20212;-80
2023/03/13 05:27:02;;;;;;;7.23;2.37;;;;;;;8.17;100.00;98600.50;4982583;28;20219;-80
2023/03/13 05:29:28;;;;;;;7.90;2.90;;;;;;;8.18;100.00;98577.94;4982588;28;20238;-80
2023/03/13 05:31:54;;;;;;;6.60;2.20;;;;;;;8.20;100.00;98589.97;4982877;28;20231;-80
2023/03/13 05:34:22;;;;;;;10.60;3.00;;;;;;;8.20;100.00;98592.56;4982880;28;20243;-80
2023/03/13 05:36:49;;;;;;;8.47;2.03;;;;;;;8.21;100.00;98594.28;4982561;28;20212;-80
2023/03/13 05:39:15;;;;;;;10.43;3.50;;;;;;;8.23;100.00;98592.47;4982785;28;20827;-81
2023/03/13 05:41:41;;;;;;;4.80;2.17;;;;;;;8.27;100.00;98577.59;4982491;28;20266;-79
2023/03/13 05:44:08;;;;;;;9.27;2.90;;;;;;;8.29;100.00;98580.97;4969458;28;20244;-80
2023/03/13 05:46:34;;;;;;;9.80;2.57;;;;;;;8.32;100.00;98583.44;4964749;28;20207;-80
2023/03/13 05:49:00;;;;;;;7.57;2.00;;;;;;;8.35;100.00;98599.78;4963859;29;20228;-80
2023/03/13 05:51:28;;;;;;;9.07;2.57;;;;;;;8.39;100.00;98589.28;4962993;29;20215;-79
2023/03/13 05:53:54;;;;;;;10.90;2.60;;;;;;;8.38;100.00;98570.19;4962611;28;20246;-81
2023/03/13 05:56:20;;;;;;;6.93;2.23;;;;;;;8.41;100.00;98580.53;4962688;28;20216;-80
2023/03/13 05:58:47;;;;;;;4.37;2.23;;;;;;;8.44;100.00;98582.16;4962344;28;20208;-80
2023/03/13 06:01:14;;;;;;;5.53;2.03;;;;;;;8.43;100.00;98581.31;4963092;28;20216;-81
2023/03/13 06:03:41;;;;;;;4.67;2.50;;;;;;;8.43;100.00;98596.91;4963533;28;20238;-80
2023/03/13 06:06:07;;;;;;;5.07;2.13;;;;;;;8.51;100.00;98594.84;4963309;28;20212;-80
2023/03/13 06:08:35;;;;;;;5.53;2.13;;;;;;;8.59;100.00;98604.09;4962426;28;20275;-80
2023/03/13 06:11:02;;;;;;;4.23;1.97;;;;;;;8.64;100.00;98605.59;4964418;28;20511;-79
2023/03/13 06:13:28;;;;;;;7.80;2.30;;;;;;;8.65;100.00;98594.28;4974364;28;20243;-79
2023/03/13 06:15:56;;;;;;;6.97;2.10;;;;;;;8.65;100.00;98591.69;4984533;28;20208;-80
2023/03/13 06:18:23;;;;;;;5.00;2.10;;;;;;;8.61;100.00;98574.50;4984925;28;20212;-80
2023/03/13 06:20:50;;;;;;;6.63;1.57;;;;;;;8.65;100.00;98577.84;4985517;28;20203;-79
2023/03/13 06:23:17;;;;;;;6.13;2.23;;;;;;;8.69;100.00;98576.81;4984481;28;20231;-81
2023/03/13 06:25:48;;;;;;;6.07;2.20;;;;;;;8.68;100.00;98572.50;4985354;28;20225;-79
2023/03/13 06:28:14;;;;;;;5.33;2.40;;;;;;;8.63;100.00;98554.50;4985064;28;20286;-80
2023/03/13 06:30:41;;;;;;;6.60;2.37;;;;;;;8.63;100.00;98531.09;4985561;28;20215;-81
2023/03/13 06:33:07;;;;;;;4.50;2.13;;;;;;;8.65;100.00;98526.66;4984832;28;20267;-80
2023/03/13 06:35:34;;;;;;;3.37;2.20;;;;;;;8.65;100.00;98518.84;4985796;28;20208;-80
2023/03/13 06:38:00;;;;;;;4.37;1.93;;;;;;;8.69;100.00;98516.97;4984446;28;20211;-79
2023/03/13 06:40:27;;;;;;;5.30;1.80;;;;;;;8.75;100.00;98517.56;4984162;28;20212;-79
2023/03/13 06:42:54;;;;;;;3.90;1.77;;;;;;;8.78;100.00;98519.19;4980591;28;20246;-80
2023/03/13 06:45:21;;;;;;;4.60;1.80;;;;;;;8.81;100.00;98516.44;4964654;28;20687;-80
2023/03/13 06:47:48;;;;;;;2.57;1.30;;;;;;;8.83;100.00;98525.03;4965734;28;20212;-80
2023/03/13 06:50:14;;;;;;;3.27;2.50;;;;;;;9.02;100.00;98542.44;4964407;29;20209;-80
2023/03/13 06:52:41;;;;;;;2.93;1.60;;;;;;;9.09;100.00;98564.72;4964023;28;20236;-80
2023/03/13 06:55:08;;;;;;;3.73;1.60;;;;;;;9.10;100.00;98561.22;4964130;29;20215;-80
2023/03/13 06:57:35;;;;;;;5.20;1.90;;;;;;;9.15;100.00;98567.88;4963372;29;20215;-79
2023/03/13 07:00:04;;;;;;;2.67;1.10;;;;;;;9.23;100.00;98575.34;4962528;28;20201;-80
2023/03/13 07:02:31;;;;;;;2.30;1.90;;;;;;;9.24;100.00;98578.84;4962448;29;20268;-80
2023/03/13 07:04:57;;;;;;;3.23;1.20;;;;;;;9.26;100.00;98567.44;4966890;28;20688;-80
2023/03/13 07:07:24;;;;;;;1.23;1.07;;;;;;;9.25;100.00;98564.88;4980768;28;20205;-80
2023/03/13 07:09:50;;;;;;;3.40;1.23;;;;;;;9.26;100.00;98558.78;4980579;28;20228;-80
2023/03/13 07:12:16;;;;;;;2.57;1.30;;;;;;;9.25;100.00;98546.66;4979476;28;20225;-81
2023/03/13 07:14:44;;;;;;;1.80;1.10;;;;;;;9.24;100.00;98538.00;4978114;28;20287;-81
2023/03/13 07:17:12;;;;;;;2.60;1.37;;;;;;;9.30;100.00;98540.34;4979597;28;20249;-80
2023/03/13 07:19:38;;;;;;;3.87;1.43;;;;;;;9.38;100.00;98541.78;4979390;28;20226;-81
2023/03/13 07:22:05;;;;;;;1.10;1.00;;;;;;;9.46;100.00;98548.31;4970426;28;20564;-80
2023/03/13 07:24:31;;;;;;;1.80;1.30;;;;;;;9.55;100.00;98539.22;4972757;28;20248;-81
2023/03/13 07:26:57;;;;;;;4.53;1.30;;;;;;;9.64;100.00;98549.25;4971524;28;20213;-80
2023/03/13 07:29:24;;;;;;;3.90;1.30;;;;;;;9.71;100.00;98565.44;4976264;28;20223;-79
2023/03/13 07:31:50;;;;;;;1.13;0.97;;;;;;;9.77;100.00;98546.06;4974441;28;20215;-80
2023/03/13 07:34:18;;;;;;;1.60;1.00;;;;;;;9.81;100.00;98558.03;4974484;28;20228;-79
2023/03/13 07:36:44;;;;;;;2.00;1.20;;;;;;;9.88;100.00;98549.03;4975979;28;20208;-81
2023/03/13 07:39:11;;;;;;;1.87;0.97;;;;;;;9.93;100.00;98563.53;4970726;28;20593;-81
2023/03/13 07:41:38;;;;;;;2.07;0.93;;;;;;;9.93;100.00;98575.75;4962419;28;20213;-82
2023/03/13 07:44:04;;;;;;;2.63;1.17;;;;;;;9.99;100.00;98579.78;4963275;28;20283;-79
2023/03/13 07:46:31;;;;;;;1.50;1.00;;;;;;;10.02;100.00;98593.53;4959927;28;20244;-79
2023/03/13 07:48:57;;;;;;;2.23;1.67;;;;;;;10.07;100.00;98594.19;4959207;29;20267;-82
2023/03/13 07:51:25;;;;;;;1.38;1.00;;;;;;;10.17;100.00;98601.53;4959708;28;20444;-81
2023/03/13 07:53:53;;;;;;;1.37;1.03;;;;;;;10.20;100.00;98602.25;4965052;28;20369;-81
2023/03/13 07:56:21;;;;;;;1.63;1.10;;;;;;;10.21;100.00;98600.47;4962866;28;20668;-84
2023/03/13 07:58:48;;;;;;;2.07;1.13;;;;;;;10.22;100.00;98623.06;4963519;28;20203;-82
2023/03/13 08:01:17;;;;;;;1.40;1.07;;;;;;;10.17;100.00;98638.91;4964004;28;20208;-83
2023/03/13 08:03:44;;;;;;;1.87;0.97;;;;;;;10.26;100.00;98611.56;4961783;28;20232;-83
2023/03/13 08:06:12;;;;;;;1.40;1.30;;;;;;;10.23;100.00;98599.53;4962170;28;20691;-84
2023/03/13 08:08:40;;;;;;;2.40;2.23;;;;;;;10.23;100.00;98611.72;4960767;28;20256;-82
2023/03/13 08:11:09;;;;;;;1.93;1.00;;;;;;;10.21;100.00;98595.28;4960474;28;20707;-80
2023/03/13 08:13:37;;;;;;;3.80;1.00;;;;;;;10.23;100.00;98590.84;4960314;28;20327;-82
2023/03/13 08:16:05;;;;;;;2.00;1.70;;;;;;;10.24;100.00;98588.16;4959748;28;20229;-81
2023/03/13 08:18:33;;;;;;;1.13;1.03;;;;;;;10.28;100.00;98588.84;4960343;28;20256;-82
2023/03/13 08:21:02;;;;;;;1.63;1.20;;;;;;;10.29;100.00;98578.34;4957826;28;20471;-80
2023/03/13 08:23:29;;;;;;;1.27;1.20;;;;;;;10.29;100.00;98580.13;4957889;28;20225;-82
2023/03/13 08:26:01;;;;;;;4.90;1.20;;;;;;;10.37;100.00;98595.44;4958051;28;20208;-80
2023/03/13 08:28:28;;;;;;;1.33;1.23;;;;;;;10.39;100.00;98601.44;4957330;28;20746;-80
2023/03/13 08:30:54;;;;;;;0.97;0.93;;;;;;;10.39;100.00;98610.09;4957552;28;20246;-81
2023/03/13 08:33:20;;;;;;;3.43;1.20;;;;;;;10.42;100.00;98622.97;4957106;28;20650;-81
2023/03/13 08:35:47;;;;;;;3.67;1.20;;;;;;;10.43;100.00;98601.22;4957252;28;20243;-81
2023/03/13 08:38:13;;;;;;;1.77;1.37;;;;;;;10.49;100.00;98602.69;4957971;28;20213;-80
2023/03/13 08:40:39;;;;;;;1.33;1.23;;;;;;;10.57;100.00;98607.53;4957545;28;20205;-80
2023/03/13 08:43:07;;;;;;;1.20;1.10;;;;;;;10.70;100.00;98596.41;4956962;28;20260;-80
2023/03/13 08:45:33;;;;;;;1.97;1.20;;;;;;;10.77;100.00;98617.84;4957659;28;20205;-80
2023/03/13 08:48:00;;;;;;;1.00;0.97;;;;;;;10.80;100.00;98620.31;4957894;28;20711;-82
2023/03/13 08:50:26;;;;;;;1.17;1.00;;;;;;;10.92;100.00;98634.47;4957168;28;20254;-81
2023/03/13 08:52:52;;;;;;;1.00;0.90;;;;;;;10.94;100.00;98653.53;4957453;28;20259;-81
2023/03/13 08:55:19;;;;;;;1.53;1.00;;;;;;;10.89;100.00;98663.38;4958265;28;20236;-82
2023/03/13 08:57:45;;;;;;;4.77;1.30;;;;;;;10.90;100.00;98673.75;4958974;28;20234;-80
2023/03/13 09:00:14;;;;;;;1.07;1.07;;;;;;;10.95;100.00;98677.88;4967436;28;20715;-82
2023/03/13 09:02:40;;;;;;;1.13;1.03;;;;;;;10.94;100.00;98684.84;4967737;28;20607;-81
2023/03/13 09:05:08;;;;;;;1.07;0.97;;;;;;;10.98;100.00;98689.03;4966350;28;20231;-81
2023/03/13 09:07:34;;;;;;;2.00;1.10;;;;;;;10.98;100.00;98680.34;4966201;28;20250;-80
2023/03/13 09:10:01;;;;;;;2.80;1.00;;;;;;;11.00;100.00;98674.13;4963073;28;20217;-81
2023/03/13 09:12:29;;;;;;;1.53;1.30;;;;;;;11.15;100.00;98697.78;4965864;28;20247;-80
2023/03/13 09:14:56;;;;;;;1.50;0.90;;;;;;;11.20;100.00;98707.09;4965807;28;20255;-81
2023/03/13 09:17:24;;;;;;;2.13;1.13;;;;;;;11.29;100.00;98737.13;4964715;28;20564;-81
2023/03/13 09:19:51;;;;;;;1.87;1.10;;;;;;;11.35;100.00;98752.50;4966636;28;20201;-81
2023/03/13 09:22:17;;;;;;;2.87;1.20;;;;;;;11.37;100.00;98763.72;4964397;28;20248;-81
2023/03/13 09:24:43;;;;;;;1.97;1.17;;;;;;;11.43;100.00;98766.03;4967017;28;20891;-81
2023/03/13 09:27:10;;;;;;;1.37;1.23;;;;;;;11.45;100.00;98777.25;4966907;28;20233;-81
2023/03/13 09:29:38;;;;;;;1.60;1.00;;;;;;;11.48;100.00;98773.66;4965948;28;20291;-80
2023/03/13 09:32:05;;;;;;;2.33;1.17;;;;;;;11.56;98.66;98781.97;4966603;28;20694;-79
2023/03/13 09:34:33;;;;;;;1.10;1.10;;;;;;;11.64;99.05;98782.41;4965117;28;20688;-81
2023/03/13 09:37:00;;;;;;;1.37;1.10;;;;;;;11.66;99.41;98788.41;4967687;28;20205;-80
2023/03/13 09:39:26;;;;;;;1.13;0.90;;;;;;;11.75;97.34;98794.09;4965904;28;20248;-81
2023/03/13 09:41:58;;;;;;;1.07;1.00;;;;;;;11.81;96.79;98810.31;4970119;28;20642;-81
2023/03/13 09:44:27;;;;;;;1.73;1.13;;;;;;;11.86;97.12;98797.03;4959754;28;20764;-81
2023/03/13 09:47:01;;;;;;;2.53;0.90;;;;;;;11.91;96.31;98813.34;4961196;28;20242;-81
2023/03/13 09:49:32;;;;;;;1.33;1.03;;;;;;;11.88;97.42;98808.25;4951487;28;20233;-80
2023/03/13 09:52:13;;;;;;;2.53;1.10;;;;;;;11.89;96.82;98809.97;4951581;29;20271;-79
2023/03/13 09:54:45;;;;;;;2.73;1.20;;;;;;;11.91;97.38;98802.88;4950260;29;20237;-80
2023/03/13 09:57:17;;;;;;;1.77;0.90;;;;;;;11.89;96.46;98799.50;4950560;28;20273;-80
2023/03/13 09:59:51;;;;;;;1.47;1.37;;;;;;;11.98;97.31;98792.97;4959258;28;20205;-80
2023/03/13 10:02:25;;;;;;;1.57;1.43;;;;;;;11.95;96.48;98793.13;4979851;28;20228;-82
2023/03/13 10:04:55;;;;;;;1.00;0.90;;;;;;;12.00;96.58;98801.59;4967345;28;20204;-80
2023/03/13 10:07:23;;;;;;;3.00;2.80;;;;;;;12.04;96.79;98779.56;4976513;28;20234;-80
2023/03/13 10:09:49;;;;;;;1.63;1.53;;;;;;;12.05;97.07;98789.09;4980203;28;20229;-80
2023/03/13 10:12:20;;;;;;;2.47;1.80;;;;;;;12.18;95.36;98805.00;4978876;28;20213;-79
2023/03/13 10:15:00;;;;;;;1.97;1.30;;;;;;;12.20;95.45;98801.38;4978110;28;20231;-79
2023/03/13 10:17:33;;;;;;;2.33;1.37;;;;;;;12.28;96.00;98793.16;4961608;28;20260;-80
2023/03/13 10:20:07;;;;;;;1.67;1.57;;;;;;;12.31;96.27;98795.63;4960073;28;20205;-83
2023/03/13 10:22:36;;;;;;;2.10;1.70;;;;;;;12.32;96.93;98789.44;4961029;28;20606;-81
2023/03/13 10:25:06;;;;;;;2.50;2.30;;;;;;;12.28;96.74;98780.91;4961288;28;20254;-85
2023/03/13 10:27:42;;;;;;;3.33;1.77;;;;;;;12.30;96.75;98786.91;4972186;28;20232;-84
2023/03/13 10:30:21;;;;;;;1.87;1.10;;;;;;;12.30;96.43;98776.44;4977524;28;20271;-82
2023/03/13 10:32:48;;;;;;;1.30;1.20;;;;;;;12.35;96.74;98777.97;4978470;28;20228;-78
2023/03/13 10:35:21;;;;;;;2.70;1.43;;;;;;;12.32;96.76;98776.34;4978481;28;20247;-81
2023/03/13 10:37:48;;;;;;;2.40;1.20;;;;;;;12.36;95.95;98774.44;4978166;28;20223;-80
2023/03/13 10:40:22;;;;;;;1.77;1.23;;;;;;;12.43;97.04;98760.09;4978676;28;20209;-79
2023/03/13 10:42:50;;;;;;;2.10;1.43;;;;;;;12.44;97.81;98738.22;4974722;28;20240;-81
2023/03/13 10:45:19;;;;;;;2.73;1.60;;;;;;;12.40;98.23;98755.84;4957663;28;20236;-80
2023/03/13 10:47:45;;;;;;;2.17;1.40;;;;;;;12.38;99.08;98720.25;4959193;28;20236;-80
2023/03/13 10:50:19;;;;;;;2.50;1.80;;;;;;;12.40;99.84;98700.06;4958923;28;20259;-80
2023/03/13 10:52:47;;;;;;;2.10;1.50;;;;;;;12.43;100.00;98678.97;4958464;28;20291;-78
2023/03/13 10:55:18;;;;;;;1.50;1.33;;;;;;;12.48;100.00;98677.78;4958786;28;20241;-81
2023/03/13 10:57:55;;;;;;;2.53;1.93;;;;;;;12.66;100.00;98668.06;4958717;28;20221;-81
2023/03/13 11:00:33;;;;;;;1.57;1.47;;;;;;;12.74;99.96;98654.53;4958675;28;20209;-78
2023/03/13 11:03:00;;;;;;;2.03;1.40;;;;;;;12.86;98.54;98682.66;4958556;28;20303;-81
2023/03/13 11:05:32;;;;;;;1.67;1.57;;;;;;;13.03;98.14;98693.94;4958595;28;20235;-79
2023/03/13 11:08:10;;;;;;;1.53;1.43;;;;;;;13.11;95.41;98726.63;4958752;28;20216;-80
2023/03/13 11:10:51;;;;;;;1.77;1.60;;;;;;;13.27;93.80;98754.56;4958820;28;20265;-81
2023/03/13 11:13:28;;;;;;;2.60;1.50;;;;;;;13.40;93.81;98759.97;4958885;28;20225;-80
2023/03/13 11:15:59;;;;;;;1.40;1.30;;;;;;;13.46;92.45;98789.31;4958388;28;20209;-79
2023/03/13 11:18:32;;;;;;;2.33;1.23;;;;;;;13.58;91.01;98811.38;4958264;28;20723;-81
2023/03/13 11:20:59;;;;;;;2.17;1.40;;;;;;;13.61;90.89;98816.41;4958592;28;20233;-81
2023/03/13 11:23:29;;;;;;;1.40;1.30;;;;;;;13.70;91.33;98825.56;4957580;28;20265;-80
2023/03/13 11:26:04;;;;;;;1.90;1.40;;;;;;;13.64;90.09;98831.97;4958346;28;20254;-80
2023/03/13 11:28:48;;;;;;;1.67;1.53;;;;;;;13.68;88.69;98869.38;4957989;28;20240;-80
2023/03/13 11:31:19;;;;;;;2.23;1.13;;;;;;;13.76;88.36;98875.03;4958123;28;20310;-79
2023/03/13 11:33:52;;;;;;;2.33;1.63;;;;;;;13.89;87.85;98883.00;4958068;28;20331;-80
2023/03/13 11:36:27;;;;;;;2.33;1.40;;;;;;;13.95;87.50;98892.31;4958502;28;20688;-81